sensor_id;sensor_type;location;lat;lon;timestamp;P1;durP1;ratioP1;P2;durP2;ratioP2
10801;SDS011;5453;50.852;7.102;2024-02-14T00:00:40;1.25;;;1.10;;
10801;SDS011;5453;50.852;7.102;2024-02-14T00:03:17;2.13;;;1.48;;
10801;SDS011;5453;50.852;7.102;2024-02-14T00:05:50;2.33;;;1.20;;
10801;SDS011;5453;50.852;7.102;2024-02-14T00:08:23;1.60;;;1.23;;
10801;SDS011;5453;50.852;7.102;2024-02-14T00:10:55;2.08;;;1.42;;
10801;SDS011;5453;50.852;7.102;2024-02-14T00:13:29;1.30;;;1.20;;
10801;SDS011;5453;50.852;7.102;2024-02-14T00:16:04;1.52;;;1.00;;
10801;SDS011;5453;50.852;7.102;2024-02-14T00:18:39;3.00;;;1.38;;
10801;SDS011;5453;50.852;7.102;2024-02-14T00:21:12;1.20;;;1.10;;
10801;SDS011;5453;50.852;7.102;2024-02-14T00:23:44;1.10;;;1.00;;
10801;SDS011;5453;50.852;7.102;2024-02-14T00:26:17;1.50;;;1.10;;
10801;SDS011;5453;50.852;7.102;2024-02-14T00:28:51;2.35;;;1.10;;
10801;SDS011;5453;50.852;7.102;2024-02-14T00:31:23;1.60;;;1.25;;
10801;SDS011;5453;50.852;7.102;2024-02-14T00:33:55;1.40;;;1.05;;
10801;SDS011;5453;50.852;7.102;2024-02-14T00:36:28;1.63;;;0.93;;
10801;SDS011;5453;50.852;7.102;2024-02-14T00:39:00;2.05;;;1.15;;
10801;SDS011;5453;50.852;7.102;2024-02-14T00:41:36;1.08;;;0.98;;
10801;SDS011;5453;50.852;7.102;2024-02-14T00:44:10;1.20;;;1.10;;
10801;SDS011;5453;50.852;7.102;2024-02-14T00:46:43;1.70;;;0.80;;
10801;SDS011;5453;50.852;7.102;2024-02-14T00:49:16;0.82;;;0.82;;
10801;SDS011;5453;50.852;7.102;2024-02-14T00:51:48;1.92;;;1.08;;
10801;SDS011;5453;50.852;7.102;2024-02-14T00:54:20;0.77;;;0.70;;
10801;SDS011;5453;50.852;7.102;2024-02-14T00:56:53;0.90;;;0.80;;
10801;SDS011;5453;50.852;7.102;2024-02-14T00:59:30;1.08;;;0.50;;
10801;SDS011;5453;50.852;7.102;2024-02-14T01:02:02;3.17;;;0.95;;
10801;SDS011;5453;50.852;7.102;2024-02-14T01:04:34;0.43;;;0.43;;
10801;SDS011;5453;50.852;7.102;2024-02-14T01:07:07;1.38;;;0.70;;
10801;SDS011;5453;50.852;7.102;2024-02-14T01:09:40;1.25;;;0.85;;
10801;SDS011;5453;50.852;7.102;2024-02-14T01:12:12;0.65;;;0.65;;
10801;SDS011;5453;50.852;7.102;2024-02-14T01:14:46;3.33;;;0.93;;
10801;SDS011;5453;50.852;7.102;2024-02-14T01:17:18;5.22;;;1.02;;
10801;SDS011;5453;50.852;7.102;2024-02-14T01:19:51;0.90;;;0.90;;
10801;SDS011;5453;50.852;7.102;2024-02-14T01:22:23;0.95;;;0.95;;
10801;SDS011;5453;50.852;7.102;2024-02-14T01:24:55;1.02;;;0.93;;
10801;SDS011;5453;50.852;7.102;2024-02-14T01:27:28;1.65;;;0.85;;
10801;SDS011;5453;50.852;7.102;2024-02-14T01:30:02;0.82;;;0.82;;
10801;SDS011;5453;50.852;7.102;2024-02-14T01:32:36;0.95;;;0.95;;
10801;SDS011;5453;50.852;7.102;2024-02-14T01:35:09;1.75;;;0.80;;
10801;SDS011;5453;50.852;7.102;2024-02-14T01:37:44;0.93;;;0.80;;
10801;SDS011;5453;50.852;7.102;2024-02-14T01:40:17;0.80;;;0.77;;
10801;SDS011;5453;50.852;7.102;2024-02-14T01:42:49;1.38;;;0.90;;
10801;SDS011;5453;50.852;7.102;2024-02-14T01:45:24;3.28;;;1.23;;
10801;SDS011;5453;50.852;7.102;2024-02-14T01:50:33;1.17;;;0.88;;
10801;SDS011;5453;50.852;7.102;2024-02-14T01:53:06;2.00;;;0.70;;
10801;SDS011;5453;50.852;7.102;2024-02-14T01:55:39;0.70;;;0.70;;
10801;SDS011;5453;50.852;7.102;2024-02-14T01:58:12;2.28;;;1.10;;
10801;SDS011;5453;50.852;7.102;2024-02-14T02:00:46;1.27;;;0.80;;
10801;SDS011;5453;50.852;7.102;2024-02-14T02:03:20;1.17;;;0.85;;
10801;SDS011;5453;50.852;7.102;2024-02-14T02:05:54;2.55;;;0.70;;
10801;SDS011;5453;50.852;7.102;2024-02-14T02:08:28;3.53;;;0.73;;
10801;SDS011;5453;50.852;7.102;2024-02-14T02:11:00;1.23;;;1.13;;
10801;SDS011;5453;50.852;7.102;2024-02-14T02:13:33;2.35;;;0.85;;
10801;SDS011;5453;50.852;7.102;2024-02-14T02:16:07;0.60;;;0.60;;
10801;SDS011;5453;50.852;7.102;2024-02-14T02:18:39;1.35;;;0.70;;
10801;SDS011;5453;50.852;7.102;2024-02-14T02:21:12;3.33;;;0.65;;
10801;SDS011;5453;50.852;7.102;2024-02-14T02:23:47;1.13;;;1.00;;
10801;SDS011;5453;50.852;7.102;2024-02-14T02:26:19;0.65;;;0.63;;
10801;SDS011;5453;50.852;7.102;2024-02-14T02:28:52;1.13;;;0.85;;
10801;SDS011;5453;50.852;7.102;2024-02-14T02:31:24;1.55;;;0.82;;
10801;SDS011;5453;50.852;7.102;2024-02-14T02:33:59;0.73;;;0.60;;
10801;SDS011;5453;50.852;7.102;2024-02-14T02:36:32;2.55;;;0.90;;
10801;SDS011;5453;50.852;7.102;2024-02-14T02:39:07;0.70;;;0.65;;
10801;SDS011;5453;50.852;7.102;2024-02-14T02:41:39;0.80;;;0.80;;
10801;SDS011;5453;50.852;7.102;2024-02-14T02:44:12;1.40;;;0.68;;
10801;SDS011;5453;50.852;7.102;2024-02-14T02:46:44;1.02;;;0.80;;
10801;SDS011;5453;50.852;7.102;2024-02-14T02:49:17;0.93;;;0.70;;
10801;SDS011;5453;50.852;7.102;2024-02-14T02:51:49;1.38;;;0.65;;
10801;SDS011;5453;50.852;7.102;2024-02-14T02:54:23;2.78;;;0.60;;
10801;SDS011;5453;50.852;7.102;2024-02-14T02:56:56;0.60;;;0.60;;
10801;SDS011;5453;50.852;7.102;2024-02-14T02:59:29;1.05;;;0.73;;
10801;SDS011;5453;50.852;7.102;2024-02-14T03:02:02;0.70;;;0.70;;
10801;SDS011;5453;50.852;7.102;2024-02-14T03:04:40;0.68;;;0.68;;
10801;SDS011;5453;50.852;7.102;2024-02-14T03:07:13;0.75;;;0.75;;
10801;SDS011;5453;50.852;7.102;2024-02-14T03:09:46;0.70;;;0.70;;
10801;SDS011;5453;50.852;7.102;2024-02-14T03:12:19;0.60;;;0.60;;
10801;SDS011;5453;50.852;7.102;2024-02-14T03:14:53;1.35;;;0.70;;
10801;SDS011;5453;50.852;7.102;2024-02-14T03:17:25;1.27;;;0.80;;
10801;SDS011;5453;50.852;7.102;2024-02-14T03:20:02;0.93;;;0.52;;
10801;SDS011;5453;50.852;7.102;2024-02-14T03:22:40;2.63;;;0.75;;
10801;SDS011;5453;50.852;7.102;2024-02-14T03:25:17;0.73;;;0.70;;
10801;SDS011;5453;50.852;7.102;2024-02-14T03:27:50;0.77;;;0.77;;
10801;SDS011;5453;50.852;7.102;2024-02-14T03:30:23;1.48;;;0.80;;
10801;SDS011;5453;50.852;7.102;2024-02-14T03:32:56;0.73;;;0.73;;
10801;SDS011;5453;50.852;7.102;2024-02-14T03:35:28;0.70;;;0.70;;
10801;SDS011;5453;50.852;7.102;2024-02-14T03:38:01;1.83;;;1.15;;
10801;SDS011;5453;50.852;7.102;2024-02-14T03:40:35;1.27;;;0.68;;
10801;SDS011;5453;50.852;7.102;2024-02-14T03:43:08;1.30;;;0.93;;
10801;SDS011;5453;50.852;7.102;2024-02-14T03:45:42;3.38;;;0.70;;
10801;SDS011;5453;50.852;7.102;2024-02-14T03:48:14;0.98;;;0.60;;
10801;SDS011;5453;50.852;7.102;2024-02-14T03:50:47;0.90;;;0.90;;
10801;SDS011;5453;50.852;7.102;2024-02-14T03:53:19;0.80;;;0.80;;
10801;SDS011;5453;50.852;7.102;2024-02-14T03:55:53;0.90;;;0.85;;
10801;SDS011;5453;50.852;7.102;2024-02-14T03:58:26;1.05;;;0.82;;
10801;SDS011;5453;50.852;7.102;2024-02-14T04:00:58;2.38;;;0.82;;
10801;SDS011;5453;50.852;7.102;2024-02-14T04:03:32;0.55;;;0.55;;
10801;SDS011;5453;50.852;7.102;2024-02-14T04:06:04;0.80;;;0.80;;
10801;SDS011;5453;50.852;7.102;2024-02-14T04:08:37;1.23;;;1.05;;
10801;SDS011;5453;50.852;7.102;2024-02-14T04:11:10;0.75;;;0.73;;
10801;SDS011;5453;50.852;7.102;2024-02-14T04:13:43;1.02;;;0.60;;
10801;SDS011;5453;50.852;7.102;2024-02-14T04:16:18;0.60;;;0.60;;
10801;SDS011;5453;50.852;7.102;2024-02-14T04:18:52;0.80;;;0.73;;
10801;SDS011;5453;50.852;7.102;2024-02-14T04:21:25;0.68;;;0.57;;
10801;SDS011;5453;50.852;7.102;2024-02-14T04:23:57;0.73;;;0.70;;
10801;SDS011;5453;50.852;7.102;2024-02-14T04:26:31;1.15;;;0.70;;
10801;SDS011;5453;50.852;7.102;2024-02-14T04:29:04;0.60;;;0.60;;
10801;SDS011;5453;50.852;7.102;2024-02-14T04:31:37;2.15;;;0.63;;
10801;SDS011;5453;50.852;7.102;2024-02-14T04:34:09;0.82;;;0.82;;
10801;SDS011;5453;50.852;7.102;2024-02-14T04:36:44;0.55;;;0.55;;
10801;SDS011;5453;50.852;7.102;2024-02-14T04:39:16;0.50;;;0.50;;
10801;SDS011;5453;50.852;7.102;2024-02-14T04:41:50;1.98;;;0.70;;
10801;SDS011;5453;50.852;7.102;2024-02-14T04:44:24;1.17;;;0.90;;
10801;SDS011;5453;50.852;7.102;2024-02-14T04:46:56;0.70;;;0.70;;
10801;SDS011;5453;50.852;7.102;2024-02-14T04:49:29;0.80;;;0.70;;
10801;SDS011;5453;50.852;7.102;2024-02-14T04:52:02;2.00;;;0.80;;
10801;SDS011;5453;50.852;7.102;2024-02-14T04:54:35;2.10;;;0.80;;
10801;SDS011;5453;50.852;7.102;2024-02-14T04:57:09;4.70;;;0.80;;
10801;SDS011;5453;50.852;7.102;2024-02-14T04:59:42;1.45;;;0.80;;
10801;SDS011;5453;50.852;7.102;2024-02-14T05:02:18;1.08;;;0.60;;
10801;SDS011;5453;50.852;7.102;2024-02-14T05:04:50;0.82;;;0.82;;
10801;SDS011;5453;50.852;7.102;2024-02-14T05:07:22;1.08;;;0.95;;
10801;SDS011;5453;50.852;7.102;2024-02-14T05:09:55;1.25;;;0.85;;
10801;SDS011;5453;50.852;7.102;2024-02-14T05:12:29;0.70;;;0.70;;
10801;SDS011;5453;50.852;7.102;2024-02-14T05:15:01;0.93;;;0.70;;
10801;SDS011;5453;50.852;7.102;2024-02-14T05:17:34;0.90;;;0.77;;
10801;SDS011;5453;50.852;7.102;2024-02-14T05:20:07;0.60;;;0.60;;
10801;SDS011;5453;50.852;7.102;2024-02-14T05:22:40;0.80;;;0.80;;
10801;SDS011;5453;50.852;7.102;2024-02-14T05:25:12;1.17;;;0.50;;
10801;SDS011;5453;50.852;7.102;2024-02-14T05:27:46;0.82;;;0.68;;
10801;SDS011;5453;50.852;7.102;2024-02-14T05:30:19;1.00;;;1.00;;
10801;SDS011;5453;50.852;7.102;2024-02-14T05:32:51;0.90;;;0.90;;
10801;SDS011;5453;50.852;7.102;2024-02-14T05:35:23;2.25;;;1.23;;
10801;SDS011;5453;50.852;7.102;2024-02-14T05:37:56;0.52;;;0.52;;
10801;SDS011;5453;50.852;7.102;2024-02-14T05:40:28;0.77;;;0.60;;
10801;SDS011;5453;50.852;7.102;2024-02-14T05:43:02;0.95;;;0.77;;
10801;SDS011;5453;50.852;7.102;2024-02-14T05:45:35;2.58;;;1.02;;
10801;SDS011;5453;50.852;7.102;2024-02-14T05:48:07;1.20;;;0.73;;
10801;SDS011;5453;50.852;7.102;2024-02-14T05:50:40;1.60;;;0.95;;
10801;SDS011;5453;50.852;7.102;2024-02-14T05:53:12;0.77;;;0.77;;
10801;SDS011;5453;50.852;7.102;2024-02-14T05:55:45;2.22;;;1.00;;
10801;SDS011;5453;50.852;7.102;2024-02-14T05:58:22;1.08;;;0.82;;
10801;SDS011;5453;50.852;7.102;2024-02-14T06:00:57;3.63;;;1.23;;
10801;SDS011;5453;50.852;7.102;2024-02-14T06:03:30;0.85;;;0.73;;
10801;SDS011;5453;50.852;7.102;2024-02-14T06:06:02;4.10;;;0.73;;
10801;SDS011;5453;50.852;7.102;2024-02-14T06:08:35;1.10;;;1.10;;
10801;SDS011;5453;50.852;7.102;2024-02-14T06:11:07;0.88;;;0.82;;
10801;SDS011;5453;50.852;7.102;2024-02-14T06:13:41;0.80;;;0.77;;
10801;SDS011;5453;50.852;7.102;2024-02-14T06:16:13;1.05;;;0.95;;
10801;SDS011;5453;50.852;7.102;2024-02-14T06:18:45;1.17;;;1.10;;
10801;SDS011;5453;50.852;7.102;2024-02-14T06:21:18;2.25;;;1.17;;
10801;SDS011;5453;50.852;7.102;2024-02-14T06:23:50;2.80;;;1.70;;
10801;SDS011;5453;50.852;7.102;2024-02-14T06:26:26;2.83;;;1.73;;
10801;SDS011;5453;50.852;7.102;2024-02-14T06:28:59;5.07;;;1.77;;
10801;SDS011;5453;50.852;7.102;2024-02-14T06:31:32;2.63;;;2.22;;
10801;SDS011;5453;50.852;7.102;2024-02-14T06:34:04;2.17;;;1.75;;
10801;SDS011;5453;50.852;7.102;2024-02-14T06:36:38;1.27;;;0.90;;
10801;SDS011;5453;50.852;7.102;2024-02-14T06:39:10;2.55;;;1.58;;
10801;SDS011;5453;50.852;7.102;2024-02-14T06:41:43;0.90;;;0.90;;
10801;SDS011;5453;50.852;7.102;2024-02-14T06:44:18;2.25;;;1.20;;
10801;SDS011;5453;50.852;7.102;2024-02-14T06:46:50;1.40;;;0.80;;
10801;SDS011;5453;50.852;7.102;2024-02-14T06:49:23;2.63;;;1.40;;
10801;SDS011;5453;50.852;7.102;2024-02-14T06:51:55;1.50;;;1.00;;
10801;SDS011;5453;50.852;7.102;2024-02-14T06:54:28;1.58;;;0.95;;
10801;SDS011;5453;50.852;7.102;2024-02-14T06:57:00;1.67;;;0.90;;
10801;SDS011;5453;50.852;7.102;2024-02-14T06:59:34;0.88;;;0.77;;
10801;SDS011;5453;50.852;7.102;2024-02-14T07:02:11;2.22;;;1.05;;
10801;SDS011;5453;50.852;7.102;2024-02-14T07:04:43;1.88;;;1.10;;
10801;SDS011;5453;50.852;7.102;2024-02-14T07:07:17;1.52;;;0.50;;
10801;SDS011;5453;50.852;7.102;2024-02-14T07:09:49;1.88;;;1.13;;
10801;SDS011;5453;50.852;7.102;2024-02-14T07:12:21;1.65;;;0.77;;
10801;SDS011;5453;50.852;7.102;2024-02-14T07:14:55;0.75;;;0.73;;
10801;SDS011;5453;50.852;7.102;2024-02-14T07:17:27;0.77;;;0.77;;
10801;SDS011;5453;50.852;7.102;2024-02-14T07:20:00;3.75;;;0.85;;
10801;SDS011;5453;50.852;7.102;2024-02-14T07:22:33;1.58;;;0.90;;
10801;SDS011;5453;50.852;7.102;2024-02-14T07:25:05;1.67;;;1.10;;
10801;SDS011;5453;50.852;7.102;2024-02-14T07:27:40;1.00;;;0.77;;
10801;SDS011;5453;50.852;7.102;2024-02-14T07:30:14;1.48;;;1.08;;
10801;SDS011;5453;50.852;7.102;2024-02-14T07:32:46;1.48;;;1.38;;
10801;SDS011;5453;50.852;7.102;2024-02-14T07:35:19;2.25;;;0.70;;
10801;SDS011;5453;50.852;7.102;2024-02-14T07:37:51;1.70;;;1.02;;
10801;SDS011;5453;50.852;7.102;2024-02-14T07:40:27;0.93;;;0.77;;
10801;SDS011;5453;50.852;7.102;2024-02-14T07:43:01;0.70;;;0.65;;
10801;SDS011;5453;50.852;7.102;2024-02-14T07:45:35;0.65;;;0.65;;
10801;SDS011;5453;50.852;7.102;2024-02-14T07:48:07;0.90;;;0.70;;
10801;SDS011;5453;50.852;7.102;2024-02-14T07:50:39;0.77;;;0.75;;
10801;SDS011;5453;50.852;7.102;2024-02-14T07:53:12;2.95;;;0.80;;
10801;SDS011;5453;50.852;7.102;2024-02-14T07:55:46;0.60;;;0.60;;
10801;SDS011;5453;50.852;7.102;2024-02-14T07:58:19;0.68;;;0.65;;
10801;SDS011;5453;50.852;7.102;2024-02-14T08:00:53;5.13;;;0.90;;
10801;SDS011;5453;50.852;7.102;2024-02-14T08:03:25;1.30;;;0.77;;
10801;SDS011;5453;50.852;7.102;2024-02-14T08:05:58;0.77;;;0.77;;
10801;SDS011;5453;50.852;7.102;2024-02-14T08:08:30;0.68;;;0.63;;
10801;SDS011;5453;50.852;7.102;2024-02-14T08:11:03;1.30;;;1.00;;
10801;SDS011;5453;50.852;7.102;2024-02-14T08:13:36;0.80;;;0.70;;
10801;SDS011;5453;50.852;7.102;2024-02-14T08:16:11;0.57;;;0.57;;
10801;SDS011;5453;50.852;7.102;2024-02-14T08:18:43;1.05;;;0.60;;
10801;SDS011;5453;50.852;7.102;2024-02-14T08:21:15;0.63;;;0.30;;
10801;SDS011;5453;50.852;7.102;2024-02-14T08:23:48;1.92;;;0.88;;
10801;SDS011;5453;50.852;7.102;2024-02-14T08:26:21;3.13;;;1.00;;
10801;SDS011;5453;50.852;7.102;2024-02-14T08:28:54;2.15;;;1.20;;
10801;SDS011;5453;50.852;7.102;2024-02-14T08:31:29;4.03;;;1.40;;
10801;SDS011;5453;50.852;7.102;2024-02-14T08:34:02;4.03;;;1.20;;
10801;SDS011;5453;50.852;7.102;2024-02-14T08:36:38;4.07;;;0.85;;
10801;SDS011;5453;50.852;7.102;2024-02-14T08:39:11;2.33;;;1.52;;
10801;SDS011;5453;50.852;7.102;2024-02-14T08:41:44;1.77;;;1.13;;
10801;SDS011;5453;50.852;7.102;2024-02-14T08:44:17;1.00;;;0.80;;
10801;SDS011;5453;50.852;7.102;2024-02-14T08:46:50;2.05;;;1.08;;
10801;SDS011;5453;50.852;7.102;2024-02-14T08:49:23;2.90;;;0.77;;
10801;SDS011;5453;50.852;7.102;2024-02-14T08:51:56;0.95;;;0.75;;
10801;SDS011;5453;50.852;7.102;2024-02-14T08:54:28;0.60;;;0.60;;
10801;SDS011;5453;50.852;7.102;2024-02-14T08:57:03;0.70;;;0.70;;
10801;SDS011;5453;50.852;7.102;2024-02-14T08:59:35;0.60;;;0.60;;
10801;SDS011;5453;50.852;7.102;2024-02-14T09:02:09;0.85;;;0.80;;
10801;SDS011;5453;50.852;7.102;2024-02-14T09:04:45;1.38;;;0.70;;
10801;SDS011;5453;50.852;7.102;2024-02-14T09:07:17;1.13;;;0.55;;
10801;SDS011;5453;50.852;7.102;2024-02-14T09:09:49;0.82;;;0.80;;
10801;SDS011;5453;50.852;7.102;2024-02-14T09:12:22;0.77;;;0.73;;
10801;SDS011;5453;50.852;7.102;2024-02-14T09:14:54;0.60;;;0.60;;
10801;SDS011;5453;50.852;7.102;2024-02-14T09:17:29;1.15;;;0.50;;
10801;SDS011;5453;50.852;7.102;2024-02-14T09:20:01;0.60;;;0.60;;
10801;SDS011;5453;50.852;7.102;2024-02-14T09:22:36;1.25;;;0.93;;
10801;SDS011;5453;50.852;7.102;2024-02-14T09:25:11;0.63;;;0.63;;
10801;SDS011;5453;50.852;7.102;2024-02-14T09:27:44;0.60;;;0.52;;
10801;SDS011;5453;50.852;7.102;2024-02-14T09:30:17;1.60;;;0.77;;
10801;SDS011;5453;50.852;7.102;2024-02-14T09:32:51;1.02;;;0.77;;
10801;SDS011;5453;50.852;7.102;2024-02-14T09:35:24;0.60;;;0.60;;
10801;SDS011;5453;50.852;7.102;2024-02-14T09:37:56;1.95;;;0.68;;
10801;SDS011;5453;50.852;7.102;2024-02-14T09:40:29;0.88;;;0.47;;
10801;SDS011;5453;50.852;7.102;2024-02-14T09:43:03;1.85;;;0.65;;
10801;SDS011;5453;50.852;7.102;2024-02-14T09:45:44;0.57;;;0.57;;
10801;SDS011;5453;50.852;7.102;2024-02-14T09:48:18;0.60;;;0.60;;
10801;SDS011;5453;50.852;7.102;2024-02-14T09:50:52;0.40;;;0.40;;
10801;SDS011;5453;50.852;7.102;2024-02-14T09:53:25;0.25;;;0.25;;
10801;SDS011;5453;50.852;7.102;2024-02-14T09:56:00;0.40;;;0.40;;
10801;SDS011;5453;50.852;7.102;2024-02-14T09:58:37;0.60;;;0.60;;
10801;SDS011;5453;50.852;7.102;2024-02-14T10:01:11;0.30;;;0.30;;
10801;SDS011;5453;50.852;7.102;2024-02-14T10:03:45;1.10;;;0.55;;
10801;SDS011;5453;50.852;7.102;2024-02-14T10:06:17;0.32;;;0.32;;
10801;SDS011;5453;50.852;7.102;2024-02-14T10:08:53;0.45;;;0.45;;
10801;SDS011;5453;50.852;7.102;2024-02-14T10:11:26;0.70;;;0.57;;
10801;SDS011;5453;50.852;7.102;2024-02-14T10:13:59;0.50;;;0.50;;
10801;SDS011;5453;50.852;7.102;2024-02-14T10:16:34;0.77;;;0.40;;
10801;SDS011;5453;50.852;7.102;2024-02-14T10:19:15;0.40;;;0.40;;
10801;SDS011;5453;50.852;7.102;2024-02-14T10:21:54;0.40;;;0.40;;
10801;SDS011;5453;50.852;7.102;2024-02-14T10:27:05;0.43;;;0.43;;
10801;SDS011;5453;50.852;7.102;2024-02-14T10:29:38;0.35;;;0.35;;
10801;SDS011;5453;50.852;7.102;2024-02-14T10:32:14;0.73;;;0.30;;
10801;SDS011;5453;50.852;7.102;2024-02-14T10:34:48;0.90;;;0.43;;
10801;SDS011;5453;50.852;7.102;2024-02-14T10:37:21;0.40;;;0.40;;
10801;SDS011;5453;50.852;7.102;2024-02-14T10:39:56;2.28;;;0.40;;
10801;SDS011;5453;50.852;7.102;2024-02-14T10:45:17;0.55;;;0.55;;
10801;SDS011;5453;50.852;7.102;2024-02-14T10:47:49;0.40;;;0.40;;
10801;SDS011;5453;50.852;7.102;2024-02-14T10:50:26;0.43;;;0.43;;
10801;SDS011;5453;50.852;7.102;2024-02-14T10:53:03;2.28;;;0.35;;
10801;SDS011;5453;50.852;7.102;2024-02-14T10:55:37;0.73;;;0.73;;
10801;SDS011;5453;50.852;7.102;2024-02-14T10:58:12;0.73;;;0.50;;
10801;SDS011;5453;50.852;7.102;2024-02-14T11:00:49;0.40;;;0.40;;
10801;SDS011;5453;50.852;7.102;2024-02-14T11:03:21;1.83;;;0.60;;
10801;SDS011;5453;50.852;7.102;2024-02-14T11:05:56;0.45;;;0.45;;
10801;SDS011;5453;50.852;7.102;2024-02-14T11:08:34;4.60;;;0.47;;
10801;SDS011;5453;50.852;7.102;2024-02-14T11:11:07;0.50;;;0.50;;
10801;SDS011;5453;50.852;7.102;2024-02-14T11:13:40;3.20;;;0.60;;
10801;SDS011;5453;50.852;7.102;2024-02-14T11:16:13;0.50;;;0.50;;
10801;SDS011;5453;50.852;7.102;2024-02-14T11:18:48;0.55;;;0.55;;
10801;SDS011;5453;50.852;7.102;2024-02-14T11:21:27;0.50;;;0.50;;
10801;SDS011;5453;50.852;7.102;2024-02-14T11:24:04;1.63;;;0.70;;
10801;SDS011;5453;50.852;7.102;2024-02-14T11:26:38;0.80;;;0.50;;
10801;SDS011;5453;50.852;7.102;2024-02-14T11:29:13;1.95;;;0.60;;
10801;SDS011;5453;50.852;7.102;2024-02-14T11:31:47;0.73;;;0.30;;
10801;SDS011;5453;50.852;7.102;2024-02-14T11:34:21;0.50;;;0.50;;
10801;SDS011;5453;50.852;7.102;2024-02-14T11:36:58;0.60;;;0.32;;
10801;SDS011;5453;50.852;7.102;2024-02-14T11:39:32;0.40;;;0.40;;
10801;SDS011;5453;50.852;7.102;2024-02-14T11:42:05;0.77;;;0.77;;
10801;SDS011;5453;50.852;7.102;2024-02-14T11:44:39;0.50;;;0.40;;
10801;SDS011;5453;50.852;7.102;2024-02-14T11:47:13;0.68;;;0.40;;
10801;SDS011;5453;50.852;7.102;2024-02-14T11:49:45;0.50;;;0.50;;
10801;SDS011;5453;50.852;7.102;2024-02-14T11:52:19;2.70;;;0.50;;
10801;SDS011;5453;50.852;7.102;2024-02-14T11:54:51;0.40;;;0.40;;
10801;SDS011;5453;50.852;7.102;2024-02-14T11:57:27;0.50;;;0.50;;
10801;SDS011;5453;50.852;7.102;2024-02-14T11:59:59;0.50;;;0.50;;
10801;SDS011;5453;50.852;7.102;2024-02-14T12:02:32;1.75;;;0.40;;
10801;SDS011;5453;50.852;7.102;2024-02-14T12:05:06;0.95;;;0.40;;
10801;SDS011;5453;50.852;7.102;2024-02-14T12:07:40;0.38;;;0.38;;
10801;SDS011;5453;50.852;7.102;2024-02-14T12:10:13;0.38;;;0.38;;
10801;SDS011;5453;50.852;7.102;2024-02-14T12:12:47;0.70;;;0.70;;
10801;SDS011;5453;50.852;7.102;2024-02-14T12:15:21;3.13;;;0.60;;
10801;SDS011;5453;50.852;7.102;2024-02-14T12:17:54;1.63;;;0.40;;
10801;SDS011;5453;50.852;7.102;2024-02-14T12:20:27;1.00;;;0.55;;
10801;SDS011;5453;50.852;7.102;2024-02-14T12:23:01;0.55;;;0.55;;
10801;SDS011;5453;50.852;7.102;2024-02-14T12:25:34;0.60;;;0.60;;
10801;SDS011;5453;50.852;7.102;2024-02-14T12:28:06;1.45;;;0.60;;
10801;SDS011;5453;50.852;7.102;2024-02-14T12:30:43;0.43;;;0.43;;
10801;SDS011;5453;50.852;7.102;2024-02-14T12:33:16;0.30;;;0.30;;
10801;SDS011;5453;50.852;7.102;2024-02-14T12:35:49;0.40;;;0.40;;
10801;SDS011;5453;50.852;7.102;2024-02-14T12:38:24;0.50;;;0.50;;
10801;SDS011;5453;50.852;7.102;2024-02-14T12:40:56;0.32;;;0.32;;
10801;SDS011;5453;50.852;7.102;2024-02-14T12:43:29;0.40;;;0.40;;
10801;SDS011;5453;50.852;7.102;2024-02-14T12:46:01;0.80;;;0.50;;
10801;SDS011;5453;50.852;7.102;2024-02-14T12:48:34;0.80;;;0.50;;
10801;SDS011;5453;50.852;7.102;2024-02-14T12:51:10;0.38;;;0.38;;
10801;SDS011;5453;50.852;7.102;2024-02-14T12:53:44;0.65;;;0.65;;
10801;SDS011;5453;50.852;7.102;2024-02-14T12:56:16;0.70;;;0.20;;
10801;SDS011;5453;50.852;7.102;2024-02-14T12:58:49;0.40;;;0.40;;
10801;SDS011;5453;50.852;7.102;2024-02-14T13:01:21;0.40;;;0.40;;
10801;SDS011;5453;50.852;7.102;2024-02-14T13:03:53;0.55;;;0.20;;
10801;SDS011;5453;50.852;7.102;2024-02-14T13:06:26;0.40;;;0.40;;
10801;SDS011;5453;50.852;7.102;2024-02-14T13:09:00;0.40;;;0.40;;
10801;SDS011;5453;50.852;7.102;2024-02-14T13:11:32;1.70;;;0.50;;
10801;SDS011;5453;50.852;7.102;2024-02-14T13:14:05;0.40;;;0.40;;
10801;SDS011;5453;50.852;7.102;2024-02-14T13:16:37;0.50;;;0.50;;
10801;SDS011;5453;50.852;7.102;2024-02-14T13:19:13;0.30;;;0.30;;
10801;SDS011;5453;50.852;7.102;2024-02-14T13:21:45;0.50;;;0.50;;
10801;SDS011;5453;50.852;7.102;2024-02-14T13:24:19;0.40;;;0.40;;
10801;SDS011;5453;50.852;7.102;2024-02-14T13:26:51;0.63;;;0.55;;
10801;SDS011;5453;50.852;7.102;2024-02-14T13:29:24;0.40;;;0.40;;
10801;SDS011;5453;50.852;7.102;2024-02-14T13:31:57;0.40;;;0.40;;
10801;SDS011;5453;50.852;7.102;2024-02-14T13:34:30;0.50;;;0.50;;
10801;SDS011;5453;50.852;7.102;2024-02-14T13:37:03;1.10;;;0.70;;
10801;SDS011;5453;50.852;7.102;2024-02-14T13:39:37;0.40;;;0.40;;
10801;SDS011;5453;50.852;7.102;2024-02-14T13:42:10;0.43;;;0.43;;
10801;SDS011;5453;50.852;7.102;2024-02-14T13:44:42;0.40;;;0.40;;
10801;SDS011;5453;50.852;7.102;2024-02-14T13:47:17;0.75;;;0.75;;
10801;SDS011;5453;50.852;7.102;2024-02-14T13:49:51;0.70;;;0.70;;
10801;SDS011;5453;50.852;7.102;2024-02-14T13:52:23;0.50;;;0.50;;
10801;SDS011;5453;50.852;7.102;2024-02-14T13:54:57;0.85;;;0.60;;
10801;SDS011;5453;50.852;7.102;2024-02-14T13:57:29;0.40;;;0.40;;
10801;SDS011;5453;50.852;7.102;2024-02-14T14:00:02;0.63;;;0.43;;
10801;SDS011;5453;50.852;7.102;2024-02-14T14:02:42;0.50;;;0.47;;
10801;SDS011;5453;50.852;7.102;2024-02-14T14:05:15;0.40;;;0.40;;
10801;SDS011;5453;50.852;7.102;2024-02-14T14:07:47;0.57;;;0.57;;
10801;SDS011;5453;50.852;7.102;2024-02-14T14:10:21;0.50;;;0.50;;
10801;SDS011;5453;50.852;7.102;2024-02-14T14:12:55;0.50;;;0.50;;
10801;SDS011;5453;50.852;7.102;2024-02-14T14:15:27;0.50;;;0.50;;
10801;SDS011;5453;50.852;7.102;2024-02-14T14:20:35;0.60;;;0.57;;
10801;SDS011;5453;50.852;7.102;2024-02-14T14:23:10;1.13;;;1.13;;
10801;SDS011;5453;50.852;7.102;2024-02-14T14:25:44;1.13;;;1.02;;
10801;SDS011;5453;50.852;7.102;2024-02-14T14:28:16;3.17;;;1.20;;
10801;SDS011;5453;50.852;7.102;2024-02-14T14:30:50;1.50;;;0.70;;
10801;SDS011;5453;50.852;7.102;2024-02-14T14:33:24;1.27;;;1.00;;
10801;SDS011;5453;50.852;7.102;2024-02-14T14:35:57;0.60;;;0.60;;
10801;SDS011;5453;50.852;7.102;2024-02-14T14:38:29;1.65;;;0.80;;
10801;SDS011;5453;50.852;7.102;2024-02-14T14:41:06;1.50;;;0.70;;
10801;SDS011;5453;50.852;7.102;2024-02-14T14:43:40;1.35;;;0.88;;
10801;SDS011;5453;50.852;7.102;2024-02-14T14:46:15;1.48;;;1.10;;
10801;SDS011;5453;50.852;7.102;2024-02-14T14:48:47;1.75;;;0.98;;
10801;SDS011;5453;50.852;7.102;2024-02-14T14:51:23;1.23;;;0.73;;
10801;SDS011;5453;50.852;7.102;2024-02-14T14:53:55;1.15;;;1.05;;
10801;SDS011;5453;50.852;7.102;2024-02-14T14:56:29;1.90;;;0.93;;
10801;SDS011;5453;50.852;7.102;2024-02-14T14:59:04;1.95;;;0.90;;
10801;SDS011;5453;50.852;7.102;2024-02-14T15:01:37;1.02;;;0.80;;
10801;SDS011;5453;50.852;7.102;2024-02-14T15:04:09;3.63;;;1.17;;
10801;SDS011;5453;50.852;7.102;2024-02-14T15:06:41;0.98;;;0.90;;
10801;SDS011;5453;50.852;7.102;2024-02-14T15:09:17;1.33;;;0.85;;
10801;SDS011;5453;50.852;7.102;2024-02-14T15:11:51;4.30;;;1.00;;
10801;SDS011;5453;50.852;7.102;2024-02-14T15:14:24;3.70;;;1.17;;
10801;SDS011;5453;50.852;7.102;2024-02-14T15:16:56;1.48;;;1.00;;
10801;SDS011;5453;50.852;7.102;2024-02-14T15:19:32;2.33;;;1.30;;
10801;SDS011;5453;50.852;7.102;2024-02-14T15:22:04;2.40;;;1.40;;
10801;SDS011;5453;50.852;7.102;2024-02-14T15:24:37;1.58;;;1.00;;
10801;SDS011;5453;50.852;7.102;2024-02-14T15:27:16;1.58;;;0.93;;
10801;SDS011;5453;50.852;7.102;2024-02-14T15:29:53;1.42;;;0.93;;
10801;SDS011;5453;50.852;7.102;2024-02-14T15:32:43;4.00;;;1.50;;
10801;SDS011;5453;50.852;7.102;2024-02-14T15:35:33;1.55;;;1.10;;
10801;SDS011;5453;50.852;7.102;2024-02-14T15:38:05;2.97;;;1.40;;
10801;SDS011;5453;50.852;7.102;2024-02-14T15:40:38;3.17;;;1.20;;
10801;SDS011;5453;50.852;7.102;2024-02-14T15:43:11;1.20;;;1.10;;
10801;SDS011;5453;50.852;7.102;2024-02-14T15:45:44;2.08;;;1.13;;
10801;SDS011;5453;50.852;7.102;2024-02-14T15:48:17;4.53;;;2.30;;